Skip Navigation LinksHome page > Weather > Current weather Skip Navigation Links

Current Weather

Moundou, Chad

For information only: do not use for flight planning or navigation.
Latest weather
Observation time Monday, May 22, 2017 4:00 PM WAT
Local time Monday, May 22, 2017 4:40 PM WAT
Flight conditions Visual Meteorological Conditions
Winds
Wind direction North (360°)
Wind speed 7 mph
Visibility 6.2 mi.
Present weather thunderstorm
Sky condition
Ceiling unlimited
Cloud layer few clouds 4,000 ft.
Cloud layer few clouds with cumulonimbus 5,000 ft.
Temperature 97°F
Dewpoint 72°F
Altimeter 29.74 in.Hg
Derived measurements
Relative humidity 45%
Heat index 106°F
Density altitude 3369 ft.
METAR FTTD 221500Z 36006KT 9999 TS FEW040TCU FEW050CB 36/22 Q1007

Settings

Location code

InnerDrive.Weather 4.0.6144.1 Release CLR 4.0.30319.36366
Copyright ©2015 Inner Drive Technology. All rights reserved. Portions Copyright ©1986-2015 David Braverman.

Find weather

Site navigation


Skip Navigation Links

Place info

Page info

PayPal - The safer, easier way to pay online!

Return home.

Copyright ©2017 Inner Drive Technology. Purveyors of fine, hand-crafted computer software. Page printed 2017-05-22T15:40:42 UTC.